Time;durP1;ratioP1;P1;durP2;ratioP2;P2;SDS_P1;SDS_P2;PMS_P1;PMS_P2;Temp;Humidity;BMP_temperature;BMP_pressure;BME280_temperature;BME280_humidity;BME280_pressure;Samples;Min_cycle;Max_cycle;Signal;HPM_P1;HPM_P2
2021/07/19 00:01:34;;;;;;;11.73;6.28;;;;;;;;;;5035272;28;20540;-68
2021/07/19 00:04:01;;;;;;;11.60;6.22;;;;;;;;;;5031082;28;20128;-68
2021/07/19 00:06:27;;;;;;;10.82;6.70;;;;;;;;;;5041773;28;20318;-68
2021/07/19 00:08:53;;;;;;;10.68;7.10;;;;;;;;;;5034764;28;20110;-68
2021/07/19 00:11:20;;;;;;;10.90;6.22;;;;;;;;;;5033493;28;20029;-68
2021/07/19 00:13:49;;;;;;;11.48;6.55;;;;;;;;;;5038122;28;20029;-68
2021/07/19 00:16:15;;;;;;;10.27;7.10;;;;;;;;;;5033191;28;20487;-68
2021/07/19 00:18:41;;;;;;;12.45;7.25;;;;;;;;;;5022602;28;20059;-68
2021/07/19 00:21:08;;;;;;;10.45;6.93;;;;;;;;;;5029955;28;20037;-68
2021/07/19 00:23:34;;;;;;;11.07;7.20;;;;;;;;;;5047792;28;20077;-68
2021/07/19 00:26:00;;;;;;;10.45;6.93;;;;;;;;;;5032595;28;20037;-68
2021/07/19 00:28:26;;;;;;;11.07;6.60;;;;;;;;;;5032569;28;20127;-68
2021/07/19 00:30:53;;;;;;;12.80;7.60;;;;;;;;;;5042283;28;20094;-68
2021/07/19 00:33:19;;;;;;;14.32;8.13;;;;;;;;;;5035459;28;20068;-68
2021/07/19 00:35:46;;;;;;;14.93;7.70;;;;;;;;;;5031898;28;20045;-68
2021/07/19 00:38:12;;;;;;;11.82;7.80;;;;;;;;;;5040270;28;20459;-68
2021/07/19 00:40:38;;;;;;;11.13;7.50;;;;;;;;;;5035330;28;20485;-68
2021/07/19 00:43:05;;;;;;;10.93;7.68;;;;;;;;;;5035041;28;20049;-68
2021/07/19 00:45:32;;;;;;;14.07;8.30;;;;;;;;;;5030218;28;20064;-68
2021/07/19 00:48:02;;;;;;;12.93;7.38;;;;;;;;;;5039727;28;20120;-68
2021/07/19 00:50:29;;;;;;;10.57;7.75;;;;;;;;;;5038218;28;20038;-68
2021/07/19 00:52:59;;;;;;;14.02;8.40;;;;;;;;;;5036175;28;20037;-68
2021/07/19 00:55:32;;;;;;;9.52;7.65;;;;;;;;;;5033780;28;20501;-68
2021/07/19 00:57:59;;;;;;;14.88;7.82;;;;;;;;;;5030382;28;20451;-68
2021/07/19 01:00:25;;;;;;;10.85;8.07;;;;;;;;;;5039775;28;20033;-68
2021/07/19 01:02:53;;;;;;;11.30;7.70;;;;;;;;;;5033560;28;20068;-68
2021/07/19 01:05:20;;;;;;;11.38;7.43;;;;;;;;;;5035402;28;20044;-68
2021/07/19 01:07:47;;;;;;;12.95;8.43;;;;;;;;;;5033249;28;20128;-68
2021/07/19 01:10:16;;;;;;;16.52;7.60;;;;;;;;;;5038971;28;20456;-68
2021/07/19 01:12:46;;;;;;;9.85;7.50;;;;;;;;;;5030278;28;20044;-68
2021/07/19 01:15:13;;;;;;;13.52;8.40;;;;;;;;;;5037520;28;20112;-68
2021/07/19 01:17:40;;;;;;;9.15;6.85;;;;;;;;;;5030457;28;20038;-68
2021/07/19 01:20:06;;;;;;;12.77;7.45;;;;;;;;;;5037471;28;20083;-68
2021/07/19 01:22:51;;;;;;;13.20;8.85;;;;;;;;;;5010016;28;20092;-68
2021/07/19 01:25:36;;;;;;;13.07;7.72;;;;;;;;;;5045272;28;20033;-68
2021/07/19 01:28:02;;;;;;;;;;;;;;;;;;5032415;28;20542;-68
2021/07/19 01:30:30;;;;;;;10.73;7.75;;;;;;;;;;5040122;28;20280;-68
2021/07/19 01:32:57;;;;;;;13.80;8.27;;;;;;;;;;5034777;28;20468;-68
2021/07/19 01:35:23;;;;;;;12.63;8.68;;;;;;;;;;5035359;28;20056;-68
2021/07/19 01:37:50;;;;;;;13.45;7.95;;;;;;;;;;5031604;28;20514;-68
2021/07/19 01:40:17;;;;;;;11.10;7.90;;;;;;;;;;5036641;28;20044;-68
2021/07/19 01:42:44;;;;;;;14.30;8.10;;;;;;;;;;5031029;28;20045;-68
2021/07/19 01:45:11;;;;;;;13.85;8.43;;;;;;;;;;5016188;28;20048;-68
2021/07/19 01:47:37;;;;;;;12.75;8.98;;;;;;;;;;5038882;28;20544;-68
2021/07/19 01:50:06;;;;;;;13.45;7.82;;;;;;;;;;5034237;28;20034;-68
2021/07/19 01:52:32;;;;;;;15.18;8.25;;;;;;;;;;5028087;28;20075;-68
2021/07/19 01:54:58;;;;;;;15.68;8.80;;;;;;;;;;5030989;28;20493;-68
2021/07/19 01:57:25;;;;;;;11.43;9.00;;;;;;;;;;5035929;28;20045;-68
2021/07/19 01:59:54;;;;;;;12.13;9.55;;;;;;;;;;5032801;28;20048;-68
2021/07/19 02:02:21;;;;;;;12.38;8.68;;;;;;;;;;5034530;28;20029;-68
2021/07/19 02:04:47;;;;;;;14.57;9.00;;;;;;;;;;5033545;28;20045;-68
2021/07/19 02:07:14;;;;;;;13.60;9.23;;;;;;;;;;5035005;28;20068;-68
2021/07/19 02:09:41;;;;;;;12.40;9.15;;;;;;;;;;5030620;28;20458;-68
2021/07/19 02:12:08;;;;;;;14.68;9.57;;;;;;;;;;5036064;28;20092;-68
2021/07/19 02:14:36;;;;;;;12.93;8.27;;;;;;;;;;5029755;28;20091;-68
2021/07/19 02:17:03;;;;;;;12.57;8.93;;;;;;;;;;5036885;28;20092;-68
2021/07/19 02:19:29;;;;;;;17.23;9.85;;;;;;;;;;5031827;28;20110;-68
2021/07/19 02:21:56;;;;;;;13.90;8.82;;;;;;;;;;5039442;28;20040;-68
2021/07/19 02:24:26;;;;;;;13.93;10.15;;;;;;;;;;5029472;28;20558;-68
2021/07/19 02:26:52;;;;;;;13.73;8.73;;;;;;;;;;5030880;28;20033;-68
2021/07/19 02:29:19;;;;;;;14.98;9.75;;;;;;;;;;5037125;28;20137;-68
2021/07/19 02:31:46;;;;;;;16.90;10.10;;;;;;;;;;5031474;28;20454;-68
2021/07/19 02:34:12;;;;;;;15.65;9.85;;;;;;;;;;5034576;28;20095;-68
2021/07/19 02:36:39;;;;;;;15.50;10.35;;;;;;;;;;5026066;28;20428;-68
2021/07/19 02:39:05;;;;;;;14.75;9.93;;;;;;;;;;5040962;28;20295;-68
2021/07/19 02:41:31;;;;;;;16.05;10.38;;;;;;;;;;5030953;28;20504;-68
2021/07/19 02:44:01;;;;;;;15.52;10.55;;;;;;;;;;5018128;28;20120;-68
2021/07/19 02:46:28;;;;;;;15.95;10.35;;;;;;;;;;5027443;28;20128;-68
2021/07/19 02:48:55;;;;;;;15.65;9.75;;;;;;;;;;5038184;28;20029;-68
2021/07/19 02:51:22;;;;;;;16.02;9.85;;;;;;;;;;5028807;28;20030;-68
2021/07/19 02:53:50;;;;;;;15.00;9.55;;;;;;;;;;5038768;28;20057;-68
2021/07/19 02:56:17;;;;;;;17.38;10.48;;;;;;;;;;5030807;28;20045;-68
2021/07/19 02:58:43;;;;;;;13.75;9.23;;;;;;;;;;5038611;28;20053;-68
2021/07/19 03:01:11;;;;;;;16.00;9.05;;;;;;;;;;5038290;28;20049;-68
2021/07/19 03:03:39;;;;;;;17.33;10.70;;;;;;;;;;5045182;28;20467;-68
2021/07/19 03:06:07;;;;;;;16.05;9.73;;;;;;;;;;5036771;28;20041;-68
2021/07/19 03:08:35;;;;;;;17.10;10.52;;;;;;;;;;5041159;28;20412;-68
2021/07/19 03:11:02;;;;;;;18.27;9.90;;;;;;;;;;5029607;28;20490;-68
2021/07/19 03:13:29;;;;;;;14.20;9.55;;;;;;;;;;5038364;28;20045;-68
2021/07/19 03:15:57;;;;;;;15.88;10.07;;;;;;;;;;5042891;28;20136;-68
2021/07/19 03:18:24;;;;;;;15.10;10.32;;;;;;;;;;5036470;28;20063;-68
2021/07/19 03:20:51;;;;;;;17.05;9.85;;;;;;;;;;5043131;28;20037;-68
2021/07/19 03:23:19;;;;;;;13.07;9.82;;;;;;;;;;5030318;28;20041;-68
2021/07/19 03:25:45;;;;;;;15.88;10.10;;;;;;;;;;5043842;28;20081;-68
2021/07/19 03:28:12;;;;;;;16.80;10.15;;;;;;;;;;5032799;28;20493;-68
2021/07/19 03:30:40;;;;;;;17.00;9.68;;;;;;;;;;5023442;28;20036;-68
2021/07/19 03:33:07;;;;;;;16.63;10.75;;;;;;;;;;5035098;28;20124;-68
2021/07/19 03:35:33;;;;;;;16.60;10.80;;;;;;;;;;5025173;28;20057;-68
2021/07/19 03:38:06;;;;;;;14.63;9.80;;;;;;;;;;5030229;28;20065;-68
2021/07/19 03:40:33;;;;;;;15.82;9.82;;;;;;;;;;5044077;28;20040;-69
2021/07/19 03:43:07;;;;;;;15.05;10.13;;;;;;;;;;5035595;28;20087;-69
2021/07/19 03:45:34;;;;;;;15.65;9.90;;;;;;;;;;5043011;28;20041;-69
2021/07/19 03:48:02;;;;;;;16.70;9.60;;;;;;;;;;5021621;28;20379;-68
2021/07/19 03:50:28;;;;;;;17.20;9.88;;;;;;;;;;5041319;28;20041;-68
2021/07/19 03:52:55;;;;;;;15.45;9.88;;;;;;;;;;5033151;28;20687;-68
2021/07/19 03:55:21;;;;;;;15.57;9.90;;;;;;;;;;5035624;28;20416;-68
2021/07/19 03:57:47;;;;;;;18.33;9.45;;;;;;;;;;5033672;28;20043;-68
2021/07/19 04:00:15;;;;;;;16.58;9.75;;;;;;;;;;5039146;28;20143;-68
2021/07/19 04:02:44;;;;;;;17.08;10.20;;;;;;;;;;5038673;28;20473;-68
2021/07/19 04:05:14;;;;;;;17.48;9.82;;;;;;;;;;5033895;28;20489;-68
2021/07/19 04:07:42;;;;;;;16.02;9.02;;;;;;;;;;5041408;28;20045;-68
2021/07/19 04:10:09;;;;;;;15.15;8.95;;;;;;;;;;5030829;28;20033;-68
2021/07/19 04:12:36;;;;;;;13.43;9.43;;;;;;;;;;5037427;28;20037;-68
2021/07/19 04:15:04;;;;;;;15.55;9.68;;;;;;;;;;5036113;28;20037;-68
2021/07/19 04:17:30;;;;;;;14.80;10.35;;;;;;;;;;5037785;28;20041;-68
2021/07/19 04:19:57;;;;;;;13.43;9.32;;;;;;;;;;5032011;28;20044;-68
2021/07/19 04:22:24;;;;;;;12.95;9.50;;;;;;;;;;5039647;28;20099;-68
2021/07/19 04:24:50;;;;;;;15.43;9.55;;;;;;;;;;5032761;28;20120;-68
2021/07/19 04:27:17;;;;;;;16.50;9.45;;;;;;;;;;5038583;28;20435;-68
2021/07/19 04:29:48;;;;;;;15.88;9.57;;;;;;;;;;5034355;28;20072;-68
2021/07/19 04:32:14;;;;;;;15.02;9.85;;;;;;;;;;5039742;28;20037;-68
2021/07/19 04:34:42;;;;;;;16.30;9.68;;;;;;;;;;5034806;28;20064;-68
2021/07/19 04:37:09;;;;;;;16.58;9.50;;;;;;;;;;5022148;28;20114;-68
2021/07/19 04:39:39;;;;;;;16.77;10.32;;;;;;;;;;5034826;28;20037;-68
2021/07/19 04:42:05;;;;;;;15.77;9.70;;;;;;;;;;5027784;28;20095;-68
2021/07/19 04:44:32;;;;;;;14.10;9.40;;;;;;;;;;5031209;28;20040;-68
2021/07/19 04:47:01;;;;;;;19.35;10.60;;;;;;;;;;5044871;28;20048;-69
2021/07/19 04:49:28;;;;;;;14.35;9.75;;;;;;;;;;5038476;28;20045;-69
2021/07/19 04:51:55;;;;;;;17.65;10.10;;;;;;;;;;5027734;28;20050;-69
2021/07/19 04:54:25;;;;;;;15.48;10.13;;;;;;;;;;5040585;28;20040;-69
2021/07/19 04:56:53;;;;;;;14.18;10.30;;;;;;;;;;5031195;28;20131;-69
2021/07/19 04:59:20;;;;;;;15.82;9.80;;;;;;;;;;5022733;28;20428;-69
2021/07/19 05:01:47;;;;;;;15.57;8.88;;;;;;;;;;5032438;28;20116;-69
2021/07/19 05:04:14;;;;;;;14.00;10.23;;;;;;;;;;5038287;28;20485;-69
2021/07/19 05:06:42;;;;;;;13.40;9.50;;;;;;;;;;5020790;28;20060;-68
2021/07/19 05:09:09;;;;;;;16.95;9.77;;;;;;;;;;5034046;28;20107;-68
2021/07/19 05:11:35;;;;;;;16.38;9.45;;;;;;;;;;5030943;28;20047;-68
2021/07/19 05:14:02;;;;;;;14.13;9.35;;;;;;;;;;5007744;28;20409;-68
2021/07/19 05:16:32;;;;;;;16.63;10.00;;;;;;;;;;5030244;28;20504;-68
2021/07/19 05:18:59;;;;;;;18.90;10.50;;;;;;;;;;5034023;28;20056;-68
2021/07/19 05:21:25;;;;;;;17.10;10.05;;;;;;;;;;5028663;28;20041;-69
2021/07/19 05:23:51;;;;;;;15.20;9.25;;;;;;;;;;5036006;28;20481;-69
2021/07/19 05:26:17;;;;;;;15.75;9.63;;;;;;;;;;5031156;28;20043;-69
2021/07/19 05:28:43;;;;;;;14.98;9.15;;;;;;;;;;5030090;28;20049;-69
2021/07/19 05:31:09;;;;;;;13.35;9.65;;;;;;;;;;5036815;28;20029;-69
2021/07/19 05:33:40;;;;;;;16.40;10.10;;;;;;;;;;5032135;28;20041;-69
2021/07/19 05:36:07;;;;;;;16.38;9.93;;;;;;;;;;5036268;28;20037;-69
2021/07/19 05:38:33;;;;;;;13.15;10.35;;;;;;;;;;5034927;28;20154;-69
2021/07/19 05:40:59;;;;;;;13.95;10.70;;;;;;;;;;5036074;28;20374;-69
2021/07/19 05:43:25;;;;;;;16.88;9.95;;;;;;;;;;5030323;28;20029;-69
2021/07/19 05:45:51;;;;;;;12.43;9.88;;;;;;;;;;5037285;28;20035;-69
2021/07/19 05:48:18;;;;;;;17.95;9.93;;;;;;;;;;5034604;28;20393;-69
2021/07/19 05:50:44;;;;;;;15.00;9.35;;;;;;;;;;5032240;28;20068;-69
2021/07/19 05:53:10;;;;;;;19.40;9.27;;;;;;;;;;5032310;28;20063;-69
2021/07/19 05:55:36;;;;;;;16.73;9.63;;;;;;;;;;5038725;28;20080;-69
2021/07/19 05:58:03;;;;;;;17.75;9.63;;;;;;;;;;5031517;28;20028;-69
2021/07/19 06:00:30;;;;;;;14.13;9.07;;;;;;;;;;5037325;28;20030;-69
2021/07/19 06:02:56;;;;;;;13.63;9.10;;;;;;;;;;5033576;28;20120;-69
2021/07/19 06:05:23;;;;;;;14.07;8.85;;;;;;;;;;5036636;28;20040;-69
2021/07/19 06:07:49;;;;;;;12.93;8.27;;;;;;;;;;5033623;28;20083;-69
2021/07/19 06:10:16;;;;;;;13.85;7.70;;;;;;;;;;5036999;28;20061;-69
2021/07/19 06:12:42;;;;;;;15.15;8.13;;;;;;;;;;5035484;28;20065;-69
2021/07/19 06:15:10;;;;;;;10.63;7.15;;;;;;;;;;5030673;28;20147;-69
2021/07/19 06:17:37;;;;;;;15.75;7.47;;;;;;;;;;5035241;28;20069;-69
2021/07/19 06:20:10;;;;;;;11.05;6.43;;;;;;;;;;5030946;28;20029;-69
2021/07/19 06:22:36;;;;;;;14.52;6.75;;;;;;;;;;5035409;28;20049;-69
2021/07/19 06:25:04;;;;;;;15.80;6.78;;;;;;;;;;5027769;28;20493;-69
2021/07/19 06:27:30;;;;;;;12.82;6.47;;;;;;;;;;5036917;28;20543;-69
2021/07/19 06:29:57;;;;;;;13.13;6.10;;;;;;;;;;5026315;28;20099;-69
2021/07/19 06:32:23;;;;;;;12.13;6.35;;;;;;;;;;5037174;28;20037;-69
2021/07/19 06:34:49;;;;;;;13.95;6.32;;;;;;;;;;5034743;28;20487;-69
2021/07/19 06:37:15;;;;;;;11.55;6.28;;;;;;;;;;5004785;28;20509;-69
2021/07/19 06:39:42;;;;;;;11.85;6.15;;;;;;;;;;5028369;28;20111;-69
2021/07/19 06:42:08;;;;;;;10.93;6.28;;;;;;;;;;5036049;28;20041;-69
2021/07/19 06:44:34;;;;;;;12.85;6.15;;;;;;;;;;5031793;28;20045;-69
2021/07/19 06:47:00;;;;;;;14.30;5.95;;;;;;;;;;5037632;28;20485;-69
2021/07/19 06:49:27;;;;;;;11.15;5.63;;;;;;;;;;5014057;28;20124;-69
2021/07/19 06:51:53;;;;;;;15.65;5.82;;;;;;;;;;5033308;28;20054;-69
2021/07/19 06:54:20;;;;;;;15.48;5.47;;;;;;;;;;5037426;28;20048;-69
2021/07/19 06:56:46;;;;;;;11.40;4.85;;;;;;;;;;5033078;28;20033;-69
2021/07/19 06:59:13;;;;;;;10.93;5.20;;;;;;;;;;5018044;28;20493;-69
2021/07/19 07:01:40;;;;;;;15.07;5.60;;;;;;;;;;5030698;28;20113;-69
2021/07/19 07:04:06;;;;;;;11.80;5.35;;;;;;;;;;5035624;28;20037;-69
2021/07/19 07:06:33;;;;;;;12.88;6.13;;;;;;;;;;5029602;28;20412;-69
2021/07/19 07:08:59;;;;;;;14.45;5.75;;;;;;;;;;5032159;28;20712;-69
2021/07/19 07:11:27;;;;;;;11.23;5.15;;;;;;;;;;5035198;28;20136;-69
2021/07/19 07:13:54;;;;;;;11.13;5.00;;;;;;;;;;5038167;28;20040;-69
2021/07/19 07:16:21;;;;;;;12.13;4.88;;;;;;;;;;5029591;28;20525;-69
2021/07/19 07:18:47;;;;;;;11.43;4.75;;;;;;;;;;5035649;28;20030;-69
2021/07/19 07:21:13;;;;;;;8.07;4.53;;;;;;;;;;5031275;28;20072;-69
2021/07/19 07:23:40;;;;;;;13.80;4.93;;;;;;;;;;5035823;28;20034;-69
2021/07/19 07:26:06;;;;;;;8.45;4.20;;;;;;;;;;5029937;28;20421;-69
2021/07/19 07:28:32;;;;;;;11.60;4.88;;;;;;;;;;5041611;28;20057;-69
2021/07/19 07:30:58;;;;;;;8.90;4.50;;;;;;;;;;5038982;28;20489;-69
2021/07/19 07:33:25;;;;;;;8.88;4.28;;;;;;;;;;5040054;28;20040;-69
2021/07/19 07:35:51;;;;;;;11.13;4.00;;;;;;;;;;5035250;28;20052;-69
2021/07/19 07:38:18;;;;;;;10.20;4.30;;;;;;;;;;5029605;28;20671;-69
2021/07/19 07:40:44;;;;;;;9.90;3.80;;;;;;;;;;5032733;28;20048;-69
2021/07/19 07:43:10;;;;;;;12.32;4.05;;;;;;;;;;5029874;28;20099;-69
2021/07/19 07:45:36;;;;;;;9.15;3.85;;;;;;;;;;5040407;28;20037;-69
2021/07/19 07:48:03;;;;;;;12.05;3.88;;;;;;;;;;5032089;28;20148;-69
2021/07/19 07:50:29;;;;;;;9.70;3.80;;;;;;;;;;5042563;28;20049;-69
2021/07/19 07:52:55;;;;;;;8.32;3.83;;;;;;;;;;5033607;28;20032;-69
2021/07/19 07:55:22;;;;;;;12.25;3.75;;;;;;;;;;5038454;28;20500;-69
2021/07/19 07:57:48;;;;;;;9.48;3.25;;;;;;;;;;5034855;28;20033;-69
2021/07/19 08:00:15;;;;;;;11.98;4.10;;;;;;;;;;5040680;28;20042;-69
2021/07/19 08:02:42;;;;;;;10.25;3.80;;;;;;;;;;5036999;28;20112;-69
2021/07/19 08:05:08;;;;;;;10.60;4.55;;;;;;;;;;5043530;28;20041;-69
2021/07/19 08:07:35;;;;;;;8.52;3.97;;;;;;;;;;5038439;28;20053;-70
2021/07/19 08:10:02;;;;;;;7.03;3.70;;;;;;;;;;5035007;28;20072;-69
2021/07/19 08:12:28;;;;;;;9.00;3.80;;;;;;;;;;5039420;28;20540;-69
2021/07/19 08:14:56;;;;;;;8.38;3.80;;;;;;;;;;5037294;28;20453;-69
2021/07/19 08:17:22;;;;;;;10.00;4.00;;;;;;;;;;5039706;28;20508;-69
2021/07/19 08:19:49;;;;;;;8.30;4.38;;;;;;;;;;5030806;28;20030;-69
2021/07/19 08:22:15;;;;;;;8.30;4.00;;;;;;;;;;5040403;28;20068;-69
2021/07/19 08:24:41;;;;;;;9.88;3.90;;;;;;;;;;5034063;28;20445;-69
2021/07/19 08:27:08;;;;;;;10.98;4.20;;;;;;;;;;5041808;28;20159;-69
2021/07/19 08:29:34;;;;;;;8.00;3.92;;;;;;;;;;5034270;28;20473;-70
2021/07/19 08:32:00;;;;;;;7.60;4.43;;;;;;;;;;5039571;28;20479;-70
2021/07/19 08:34:26;;;;;;;11.43;4.53;;;;;;;;;;5031348;28;20092;-70
2021/07/19 08:36:52;;;;;;;9.70;5.28;;;;;;;;;;5046073;28;20033;-70
2021/07/19 08:39:19;;;;;;;8.02;4.22;;;;;;;;;;5019815;28;20041;-70
2021/07/19 08:41:45;;;;;;;8.70;4.32;;;;;;;;;;5043220;28;20441;-69
2021/07/19 08:44:11;;;;;;;11.25;4.70;;;;;;;;;;5032226;28;20033;-69
2021/07/19 08:46:39;;;;;;;7.47;4.38;;;;;;;;;;5040087;28;20041;-69
2021/07/19 08:49:06;;;;;;;9.23;4.38;;;;;;;;;;5031364;28;20095;-69
2021/07/19 08:51:33;;;;;;;11.50;4.25;;;;;;;;;;5038869;28;20041;-69
2021/07/19 08:54:01;;;;;;;10.05;4.07;;;;;;;;;;5020674;28;20040;-69
2021/07/19 08:56:29;;;;;;;10.25;3.90;;;;;;;;;;5038889;28;20036;-69
2021/07/19 08:58:55;;;;;;;9.07;3.97;;;;;;;;;;5060660;28;20408;-69
2021/07/19 09:01:21;;;;;;;9.70;3.85;;;;;;;;;;5055115;28;20032;-69
2021/07/19 09:03:47;;;;;;;7.35;3.63;;;;;;;;;;5059241;28;20748;-69
2021/07/19 09:06:14;;;;;;;11.25;4.28;;;;;;;;;;5056377;28;20139;-69
2021/07/19 09:08:47;;;;;;;8.93;3.65;;;;;;;;;;5061779;28;20047;-69
2021/07/19 09:11:13;;;;;;;9.85;3.72;;;;;;;;;;5050560;28;20029;-69
2021/07/19 09:13:55;;;;;;;9.75;3.80;;;;;;;;;;5059435;28;20489;-68
2021/07/19 09:16:21;;;;;;;8.50;3.92;;;;;;;;;;5054179;28;20044;-68
2021/07/19 09:18:47;;;;;;;7.13;3.55;;;;;;;;;;5064688;28;20064;-68
2021/07/19 09:21:32;;;;;;;9.90;4.15;;;;;;;;;;5055757;28;20037;-68
2021/07/19 09:24:08;;;;;;;10.80;3.53;;;;;;;;;;5057125;28;20071;-68
2021/07/19 09:26:35;;;;;;;7.32;3.95;;;;;;;;;;5041547;28;20542;-68
2021/07/19 09:29:02;;;;;;;7.97;3.65;;;;;;;;;;5061361;28;20113;-68
2021/07/19 09:31:32;;;;;;;11.05;3.92;;;;;;;;;;5038711;28;20040;-68
2021/07/19 09:33:59;;;;;;;8.48;3.90;;;;;;;;;;5060232;28;20543;-68
2021/07/19 09:36:27;;;;;;;11.95;4.10;;;;;;;;;;5053910;28;20040;-68
2021/07/19 09:39:06;;;;;;;8.55;3.63;;;;;;;;;;5065171;28;20489;-68
2021/07/19 09:41:32;;;;;;;8.30;3.10;;;;;;;;;;5053368;28;20469;-69
2021/07/19 09:43:58;;;;;;;9.23;4.00;;;;;;;;;;5059288;28;20063;-69
2021/07/19 09:46:32;;;;;;;8.73;3.58;;;;;;;;;;5054140;28;20036;-69
2021/07/19 09:48:59;;;;;;;9.35;3.72;;;;;;;;;;5057709;28;20055;-69
2021/07/19 09:51:29;;;;;;;9.07;3.65;;;;;;;;;;5053961;28;20090;-69
2021/07/19 09:53:55;;;;;;;7.70;3.45;;;;;;;;;;5060971;28;20037;-69
2021/07/19 09:56:22;;;;;;;9.75;3.25;;;;;;;;;;5057968;28;20044;-69
2021/07/19 09:58:52;;;;;;;7.15;3.55;;;;;;;;;;5052010;28;20508;-69
2021/07/19 10:01:28;;;;;;;8.13;3.67;;;;;;;;;;5057430;28;20036;-69
2021/07/19 10:04:07;;;;;;;6.45;3.42;;;;;;;;;;5049862;28;20041;-69
2021/07/19 10:06:35;;;;;;;9.70;3.67;;;;;;;;;;5055078;28;20036;-69
2021/07/19 10:09:04;;;;;;;7.75;3.40;;;;;;;;;;5054602;28;20067;-69
2021/07/19 10:11:32;;;;;;;5.85;3.15;;;;;;;;;;5056665;28;20071;-69
2021/07/19 10:13:58;;;;;;;8.52;3.47;;;;;;;;;;5052318;28;20124;-69
2021/07/19 10:16:27;;;;;;;8.77;3.60;;;;;;;;;;5052917;28;20052;-69
2021/07/19 10:18:54;;;;;;;9.25;3.58;;;;;;;;;;5046775;28;20481;-69
2021/07/19 10:21:28;;;;;;;7.65;3.67;;;;;;;;;;5055831;28;20484;-69
2021/07/19 10:23:55;;;;;;;6.97;3.28;;;;;;;;;;5052077;28;20064;-69
2021/07/19 10:26:22;;;;;;;7.72;3.50;;;;;;;;;;5055446;28;20029;-69
2021/07/19 10:28:48;;;;;;;8.55;3.35;;;;;;;;;;5050766;28;20107;-70
2021/07/19 10:31:16;;;;;;;8.25;3.25;;;;;;;;;;5057292;28;20037;-71
2021/07/19 10:33:42;;;;;;;7.20;3.35;;;;;;;;;;5047485;28;20162;-70
2021/07/19 10:36:11;;;;;;;6.05;3.22;;;;;;;;;;5063048;28;20051;-70
2021/07/19 10:38:40;;;;;;;10.15;4.95;;;;;;;;;;5053416;28;20542;-70
2021/07/19 10:41:07;;;;;;;5.60;3.42;;;;;;;;;;5059267;28;20431;-70
2021/07/19 10:43:33;;;;;;;6.85;3.33;;;;;;;;;;5052848;28;20078;-70
2021/07/19 10:46:12;;;;;;;5.55;3.40;;;;;;;;;;5038893;28;20044;-70
2021/07/19 10:48:38;;;;;;;6.13;3.25;;;;;;;;;;5059160;28;20083;-70
2021/07/19 10:51:34;;;;;;;7.68;3.38;;;;;;;;;;5052067;28;20067;-70
2021/07/19 10:54:10;;;;;;;9.18;3.17;;;;;;;;;;5027706;28;20040;-70
2021/07/19 10:56:36;;;;;;;8.27;3.83;;;;;;;;;;5061923;28;20579;-67
2021/07/19 10:59:02;;;;;;;7.88;3.88;;;;;;;;;;5053762;28;20037;-67
2021/07/19 11:01:29;;;;;;;6.13;3.50;;;;;;;;;;5056064;28;20449;-67
2021/07/19 11:03:57;;;;;;;6.03;3.63;;;;;;;;;;5055156;28;20033;-67
2021/07/19 11:06:33;;;;;;;5.20;3.28;;;;;;;;;;5049621;28;20037;-67
2021/07/19 11:09:00;;;;;;;5.60;3.63;;;;;;;;;;5061700;28;20076;-67
2021/07/19 11:11:28;;;;;;;6.50;3.38;;;;;;;;;;5054256;28;20049;-67
2021/07/19 11:14:02;;;;;;;7.35;3.13;;;;;;;;;;5059719;28;20071;-67
2021/07/19 11:16:38;;;;;;;10.02;3.28;;;;;;;;;;5056496;28;20060;-70
2021/07/19 11:19:04;;;;;;;10.30;3.65;;;;;;;;;;5061915;28;20029;-71
2021/07/19 11:21:32;;;;;;;8.32;3.50;;;;;;;;;;5043624;28;20565;-71
2021/07/19 11:24:08;;;;;;;7.00;2.95;;;;;;;;;;5046135;28;20053;-70
2021/07/19 11:26:46;;;;;;;6.25;3.08;;;;;;;;;;5059368;28;20041;-71
2021/07/19 11:29:12;;;;;;;5.88;3.20;;;;;;;;;;5063084;28;20044;-71
2021/07/19 11:31:38;;;;;;;7.72;3.47;;;;;;;;;;5062649;28;20115;-71
2021/07/19 11:34:05;;;;;;;5.68;3.17;;;;;;;;;;5057436;28;20040;-71
2021/07/19 11:36:31;;;;;;;5.07;3.53;;;;;;;;;;5053514;28;20044;-71
2021/07/19 11:39:00;;;;;;;6.50;3.28;;;;;;;;;;5059612;28;20080;-70
2021/07/19 11:41:33;;;;;;;6.28;3.47;;;;;;;;;;5056011;28;20492;-68
2021/07/19 11:44:00;;;;;;;5.50;3.17;;;;;;;;;;5059245;28;20039;-68
2021/07/19 11:46:30;;;;;;;6.40;3.25;;;;;;;;;;5055503;28;20037;-68
2021/07/19 11:49:01;;;;;;;6.53;3.42;;;;;;;;;;5060940;28;20032;-67
2021/07/19 11:51:27;;;;;;;6.13;3.70;;;;;;;;;;5062696;28;20439;-69
2021/07/19 11:53:55;;;;;;;7.45;3.45;;;;;;;;;;5061213;28;20061;-65
2021/07/19 11:56:21;;;;;;;5.32;3.08;;;;;;;;;;5031752;28;20055;-64
2021/07/19 11:58:51;;;;;;;5.97;3.53;;;;;;;;;;5067689;28;20083;-66
2021/07/19 12:01:23;;;;;;;7.82;3.53;;;;;;;;;;5063833;28;20052;-67
2021/07/19 12:03:52;;;;;;;5.57;3.90;;;;;;;;;;5057070;28;20091;-67
2021/07/19 12:06:18;;;;;;;6.30;4.45;;;;;;;;;;5059493;28;20507;-67
2021/07/19 12:08:50;;;;;;;7.80;4.75;;;;;;;;;;5056248;28;20063;-68
2021/07/19 12:11:16;;;;;;;7.10;4.75;;;;;;;;;;5063920;28;20396;-65
2021/07/19 12:13:45;;;;;;;7.55;4.50;;;;;;;;;;5054659;28;20122;-65
2021/07/19 12:16:12;;;;;;;6.43;4.50;;;;;;;;;;5060698;28;20102;-64
2021/07/19 12:18:41;;;;;;;5.70;4.35;;;;;;;;;;5053847;28;20052;-66
2021/07/19 12:21:11;;;;;;;6.13;5.22;;;;;;;;;;5072107;28;20032;-68
2021/07/19 12:23:38;;;;;;;6.45;4.93;;;;;;;;;;5056158;28;20062;-71
2021/07/19 12:26:05;;;;;;;6.38;4.97;;;;;;;;;;5063211;28;20033;-68
2021/07/19 12:28:31;;;;;;;9.35;5.38;;;;;;;;;;5056682;28;20146;-69
2021/07/19 12:31:20;;;;;;;6.38;4.97;;;;;;;;;;5049880;28;20047;-70
2021/07/19 12:33:46;;;;;;;6.13;4.80;;;;;;;;;;5053867;28;20037;-70
2021/07/19 12:36:12;;;;;;;6.97;4.78;;;;;;;;;;5041884;28;20056;-69
2021/07/19 12:38:38;;;;;;;7.20;5.40;;;;;;;;;;5060824;28;20123;-69
2021/07/19 12:41:10;;;;;;;8.95;5.95;;;;;;;;;;5060075;28;20047;-69
2021/07/19 12:43:36;;;;;;;7.95;5.30;;;;;;;;;;5059447;28;20032;-69
2021/07/19 12:46:02;;;;;;;8.45;6.18;;;;;;;;;;5063340;28;20041;-69
2021/07/19 12:48:28;;;;;;;6.95;6.10;;;;;;;;;;5055920;28;20049;-69
2021/07/19 12:51:01;;;;;;;7.95;6.68;;;;;;;;;;5048490;28;20105;-70
2021/07/19 12:53:35;;;;;;;7.45;6.18;;;;;;;;;;5058712;28;20033;-69
2021/07/19 12:56:11;;;;;;;6.65;5.97;;;;;;;;;;5057557;28;20121;-69
2021/07/19 12:58:38;;;;;;;9.65;7.07;;;;;;;;;;5061018;28;20120;-67
2021/07/19 13:01:12;;;;;;;8.38;7.18;;;;;;;;;;5062710;28;20415;-67
2021/07/19 13:03:38;;;;;;;9.77;6.57;;;;;;;;;;5058767;28;20037;-68
2021/07/19 13:06:05;;;;;;;7.40;6.57;;;;;;;;;;5058437;28;20503;-68
2021/07/19 13:08:36;;;;;;;9.52;7.32;;;;;;;;;;5064633;28;20783;-67
2021/07/19 13:11:12;;;;;;;8.55;7.50;;;;;;;;;;5052448;28;20033;-67
2021/07/19 13:13:38;;;;;;;10.38;7.05;;;;;;;;;;5056692;28;20037;-67
2021/07/19 13:16:05;;;;;;;8.48;7.25;;;;;;;;;;5050634;28;20055;-67
2021/07/19 13:18:32;;;;;;;9.70;7.45;;;;;;;;;;5058401;28;20476;-67
2021/07/19 13:21:06;;;;;;;9.65;6.82;;;;;;;;;;5052974;28;20064;-67
2021/07/19 13:23:32;;;;;;;;;;;;;;;;;;5060664;28;20495;-67
2021/07/19 13:26:05;;;;;;;9.75;7.55;;;;;;;;;;5060959;28;20507;-67
2021/07/19 13:28:31;;;;;;;8.40;7.55;;;;;;;;;;5060704;28;20089;-67
2021/07/19 13:31:01;;;;;;;9.90;7.70;;;;;;;;;;5050784;28;20040;-67
2021/07/19 13:33:27;;;;;;;9.23;7.40;;;;;;;;;;5064354;28;20039;-72
2021/07/19 13:35:53;;;;;;;8.32;6.80;;;;;;;;;;5054840;28;20044;-68
2021/07/19 13:38:19;;;;;;;7.75;6.95;;;;;;;;;;5059084;28;20474;-68
2021/07/19 13:40:47;;;;;;;10.95;7.20;;;;;;;;;;5055351;28;20052;-69
2021/07/19 13:43:16;;;;;;;7.50;6.57;;;;;;;;;;5056221;28;20036;-69
2021/07/19 13:45:43;;;;;;;10.45;6.40;;;;;;;;;;5054441;28;20049;-70
2021/07/19 13:48:09;;;;;;;10.48;7.32;;;;;;;;;;5060844;28;20036;-67
2021/07/19 13:50:35;;;;;;;9.15;7.28;;;;;;;;;;5059501;28;20516;-67
2021/07/19 13:53:01;;;;;;;8.77;7.15;;;;;;;;;;5058935;28;20240;-68
2021/07/19 13:55:27;;;;;;;7.40;5.95;;;;;;;;;;5061254;28;20048;-68
2021/07/19 13:57:53;;;;;;;8.60;6.40;;;;;;;;;;5055230;28;20064;-68
2021/07/19 14:00:19;;;;;;;8.40;6.43;;;;;;;;;;5046656;28;20511;-69
2021/07/19 14:02:46;;;;;;;9.20;6.13;;;;;;;;;;5053461;28;20033;-68
2021/07/19 14:05:14;;;;;;;8.90;6.95;;;;;;;;;;5056093;28;20032;-68
2021/07/19 14:07:40;;;;;;;9.80;6.25;;;;;;;;;;5053855;28;20155;-68
2021/07/19 14:10:06;;;;;;;9.52;6.30;;;;;;;;;;5060868;28;20032;-68
2021/07/19 14:12:32;;;;;;;8.60;6.03;;;;;;;;;;5053410;28;20104;-67
2021/07/19 14:14:59;;;;;;;8.18;6.03;;;;;;;;;;5062033;28;20143;-67
2021/07/19 14:17:25;;;;;;;9.90;6.80;;;;;;;;;;5052395;28;20049;-67
2021/07/19 14:19:51;;;;;;;7.57;5.70;;;;;;;;;;5053510;28;20048;-69
2021/07/19 14:22:17;;;;;;;10.90;6.55;;;;;;;;;;5053082;28;20095;-68
2021/07/19 14:24:44;;;;;;;10.93;6.18;;;;;;;;;;5064418;28;20077;-67
2021/07/19 14:27:10;;;;;;;10.52;6.68;;;;;;;;;;5053972;28;20066;-67
2021/07/19 14:29:36;;;;;;;7.60;6.15;;;;;;;;;;5053123;28;20112;-67
2021/07/19 14:32:02;;;;;;;8.77;6.30;;;;;;;;;;5058166;28;20560;-67
2021/07/19 14:34:29;;;;;;;9.25;6.70;;;;;;;;;;5051430;28;20079;-67
2021/07/19 14:36:55;;;;;;;9.10;6.55;;;;;;;;;;5057453;28;20123;-67
2021/07/19 14:39:22;;;;;;;9.02;6.43;;;;;;;;;;5048766;28;20068;-68